Time;durP1;ratioP1;P1;durP2;ratioP2;P2;SDS_P1;SDS_P2;PMS_P1;PMS_P2;Temp;Humidity;BMP_temperature;BMP_pressure;BME280_temperature;BME280_humidity;BME280_pressure;Samples;Min_cycle;Max_cycle;Signal;HPM_P1;HPM_P2
2022/02/15 00:02:26;;;;;;;11.60;2.30;;;27.80;99.90;;;;;;5073449;28;20056;-83
2022/02/15 00:04:54;;;;;;;8.35;1.88;;;27.90;99.90;;;;;;5074172;28;20025;-81
2022/02/15 00:07:23;;;;;;;10.38;2.25;;;28.20;99.90;;;;;;5076597;28;20028;-83
2022/02/15 00:09:50;;;;;;;9.50;3.13;;;28.20;99.90;;;;;;5073262;28;20029;-82
2022/02/15 00:12:18;;;;;;;10.98;1.98;;;27.80;99.90;;;;;;5075952;28;20020;-83
2022/02/15 00:14:45;;;;;;;11.25;2.50;;;28.00;99.90;;;;;;5073819;28;20078;-82
2022/02/15 00:17:12;;;;;;;9.52;2.13;;;28.10;99.90;;;;;;5074449;28;20024;-83
2022/02/15 00:19:40;;;;;;;13.77;2.70;;;28.10;99.90;;;;;;5073239;28;20039;-84
2022/02/15 00:22:07;;;;;;;11.70;2.00;;;28.10;99.90;;;;;;5074741;28;20021;-83
2022/02/15 00:24:35;;;;;;;11.45;2.35;;;27.90;99.90;;;;;;5073133;28;20187;-85
2022/02/15 00:27:02;;;;;;;10.07;2.60;;;28.00;99.90;;;;;;5075711;28;20020;-82
2022/02/15 00:29:29;;;;;;;10.30;1.90;;;28.10;99.90;;;;;;5072685;28;20382;-81
2022/02/15 00:31:58;;;;;;;14.10;2.17;;;28.40;99.90;;;;;;5072147;28;20024;-79
2022/02/15 00:34:25;;;;;;;10.93;2.10;;;28.70;99.90;;;;;;5074176;28;20394;-80
2022/02/15 00:36:52;;;;;;;11.18;2.15;;;28.70;99.90;;;;;;5074946;28;20059;-87
2022/02/15 00:39:20;;;;;;;14.43;2.28;;;28.50;99.90;;;;;;5073075;28;20543;-83
2022/02/15 00:41:48;;;;;;;10.85;2.45;;;28.60;99.90;;;;;;5073606;28;20021;-82
2022/02/15 00:44:15;;;;;;;16.00;3.63;;;28.60;99.90;;;;;;5073003;28;20036;-82
2022/02/15 00:46:42;;;;;;;14.57;2.47;;;28.50;99.90;;;;;;5072542;28;20107;-85
2022/02/15 00:49:10;;;;;;;11.50;2.35;;;28.50;99.90;;;;;;5074195;28;20025;-82
2022/02/15 00:51:37;;;;;;;12.88;2.67;;;28.60;99.90;;;;;;5074616;28;20516;-85
2022/02/15 00:54:05;;;;;;;11.73;2.22;;;28.70;99.90;;;;;;5072389;28;20070;-83
2022/02/15 00:56:32;;;;;;;13.05;2.42;;;28.50;99.90;;;;;;5072970;28;20031;-83
2022/02/15 00:59:00;;;;;;;13.75;2.35;;;28.50;99.90;;;;;;5073936;28;20084;-83
2022/02/15 01:01:27;;;;;;;15.07;2.65;;;28.70;99.90;;;;;;5074170;28;20488;-80
2022/02/15 01:03:54;;;;;;;12.88;2.25;;;28.80;99.90;;;;;;5073470;28;20074;-82
2022/02/15 01:09:44;;;;;;;13.07;2.47;;;29.30;99.90;;;;;;5077848;28;20031;-83
2022/02/15 01:12:11;;;;;;;12.23;2.40;;;29.30;99.90;;;;;;5075533;28;20024;-81
2022/02/15 01:14:39;;;;;;;13.50;2.60;;;29.20;99.90;;;;;;5077429;28;20021;-82
2022/02/15 01:17:07;;;;;;;12.75;2.63;;;29.20;99.90;;;;;;5076046;28;20393;-82
2022/02/15 01:19:34;;;;;;;11.52;2.33;;;28.90;99.90;;;;;;5077067;28;20016;-83
2022/02/15 01:22:02;;;;;;;11.82;2.45;;;29.10;99.90;;;;;;5075435;28;20042;-84
2022/02/15 01:24:30;;;;;;;12.82;2.65;;;28.90;99.90;;;;;;5076003;28;20036;-83
2022/02/15 01:26:58;;;;;;;13.93;2.47;;;29.20;99.90;;;;;;5060319;28;20029;-82
2022/02/15 01:29:25;;;;;;;11.32;2.25;;;29.30;99.90;;;;;;5076026;28;20028;-83
2022/02/15 01:31:53;;;;;;;11.90;2.80;;;29.30;99.90;;;;;;5075637;28;20458;-82
2022/02/15 01:34:21;;;;;;;11.82;2.55;;;29.10;99.90;;;;;;5075723;28;20029;-82
2022/02/15 01:36:49;;;;;;;11.68;2.83;;;29.20;99.90;;;;;;5075665;28;20550;-83
2022/02/15 01:39:16;;;;;;;12.75;2.55;;;29.20;99.90;;;;;;5076259;28;20024;-83
2022/02/15 01:41:44;;;;;;;10.35;2.65;;;29.30;99.90;;;;;;5075210;28;20385;-83
2022/02/15 01:44:13;;;;;;;17.17;2.97;;;29.30;99.90;;;;;;5075448;28;20021;-82
2022/02/15 01:46:41;;;;;;;11.55;2.05;;;29.10;99.90;;;;;;5076019;28;20028;-82
2022/02/15 01:49:09;;;;;;;10.02;3.08;;;29.20;99.90;;;;;;5075363;28;20111;-85
2022/02/15 01:51:36;;;;;;;11.05;2.63;;;29.70;99.90;;;;;;5076991;28;20013;-83
2022/02/15 01:54:04;;;;;;;8.45;2.20;;;29.70;99.90;;;;;;5076956;28;20065;-83
2022/02/15 01:56:31;;;;;;;11.77;2.05;;;29.70;99.90;;;;;;5076530;28;20056;-84
2022/02/15 01:58:59;;;;;;;12.45;2.75;;;29.50;99.90;;;;;;5076696;28;20021;-84
2022/02/15 02:01:26;;;;;;;11.55;2.40;;;29.40;99.90;;;;;;5076691;28;20150;-84
2022/02/15 02:03:53;;;;;;;9.00;2.97;;;29.10;99.90;;;;;;5074582;28;20031;-86
2022/02/15 02:06:21;;;;;;;12.52;2.45;;;29.10;99.90;;;;;;5076388;28;20393;-86
2022/02/15 02:08:48;;;;;;;10.93;2.17;;;29.40;99.90;;;;;;5074514;28;20052;-85
2022/02/15 02:11:16;;;;;;;11.80;2.10;;;29.50;99.90;;;;;;5076517;28;20024;-82
2022/02/15 02:13:43;;;;;;;8.40;2.25;;;29.70;99.90;;;;;;5075969;28;20021;-83
2022/02/15 02:16:11;;;;;;;10.15;2.08;;;29.70;99.90;;;;;;5075296;28;20043;-83
2022/02/15 02:18:38;;;;;;;9.40;1.77;;;29.60;99.90;;;;;;5076367;28;20374;-83
2022/02/15 02:21:07;;;;;;;12.18;2.55;;;29.50;99.90;;;;;;5074554;28;20032;-86
2022/02/15 02:23:34;;;;;;;8.77;2.22;;;29.50;99.90;;;;;;5074382;28;20036;-82
2022/02/15 02:26:02;;;;;;;10.93;2.42;;;29.40;99.90;;;;;;5074538;28;20501;-83
2022/02/15 02:28:29;;;;;;;11.18;2.65;;;29.30;99.90;;;;;;5074889;28;20025;-83
2022/02/15 02:30:57;;;;;;;13.77;2.53;;;29.10;99.90;;;;;;5075894;28;20130;-83
2022/02/15 02:33:24;;;;;;;11.68;2.70;;;29.00;99.90;;;;;;5075698;28;20485;-84
2022/02/15 02:36:01;;;;;;;12.23;2.10;;;29.30;99.90;;;;;;5075571;28;20393;-84
2022/02/15 02:38:29;;;;;;;10.38;2.35;;;29.60;99.90;;;;;;5074034;28;20425;-84
2022/02/15 02:40:56;;;;;;;10.70;2.75;;;29.70;99.90;;;;;;5074607;28;20459;-84
2022/02/15 02:43:25;;;;;;;11.05;2.03;;;29.30;99.90;;;;;;5076052;28;20024;-84
2022/02/15 02:45:52;;;;;;;7.97;2.05;;;29.30;99.90;;;;;;5075826;28;20095;-85
2022/02/15 02:48:20;;;;;;;13.18;2.55;;;29.30;99.90;;;;;;5075846;28;20024;-84
2022/02/15 02:50:47;;;;;;;8.05;2.17;;;29.40;99.90;;;;;;5074808;28;20040;-84
2022/02/15 02:53:18;;;;;;;12.27;2.20;;;29.40;99.90;;;;;;5075808;28;20390;-83
2022/02/15 02:55:45;;;;;;;10.52;2.38;;;29.50;99.90;;;;;;5074919;28;20032;-83
2022/02/15 02:58:13;;;;;;;10.45;2.30;;;29.50;99.90;;;;;;5075449;28;20036;-85
2022/02/15 03:00:40;;;;;;;9.40;1.85;;;30.10;99.90;;;;;;5074940;28;20060;-81
2022/02/15 03:03:07;;;;;;;10.32;2.40;;;30.00;99.90;;;;;;5074751;28;20039;-83
2022/02/15 03:05:35;;;;;;;13.50;2.35;;;29.80;99.90;;;;;;5074752;28;20043;-83
2022/02/15 03:08:03;;;;;;;8.55;2.00;;;29.60;99.90;;;;;;5074692;28;20073;-83
2022/02/15 03:10:30;;;;;;;9.90;2.00;;;30.00;99.90;;;;;;5073172;28;20032;-82
2022/02/15 03:12:58;;;;;;;10.20;1.98;;;30.00;99.90;;;;;;5074516;28;20032;-83
2022/02/15 03:15:25;;;;;;;8.77;2.17;;;29.50;99.90;;;;;;5074569;28;20020;-83
2022/02/15 03:17:52;;;;;;;10.30;2.20;;;29.50;99.90;;;;;;5074721;28;20032;-84
2022/02/15 03:20:20;;;;;;;9.25;1.83;;;29.60;99.90;;;;;;5074513;28;20025;-83
2022/02/15 03:22:47;;;;;;;7.55;1.85;;;29.50;99.90;;;;;;5073720;28;20025;-83
2022/02/15 03:25:14;;;;;;;6.85;2.50;;;29.60;99.90;;;;;;5074363;28;20513;-85
2022/02/15 03:27:42;;;;;;;8.63;1.85;;;29.80;99.90;;;;;;5074218;28;20413;-84
2022/02/15 03:30:12;;;;;;;10.57;2.42;;;29.50;99.90;;;;;;5074761;28;20132;-84
2022/02/15 03:32:42;;;;;;;8.52;1.65;;;29.40;99.90;;;;;;5075184;28;20023;-84
2022/02/15 03:35:10;;;;;;;8.23;1.75;;;30.00;99.90;;;;;;5074532;28;20031;-84
2022/02/15 03:37:40;;;;;;;8.35;2.25;;;29.90;99.90;;;;;;5074453;28;20104;-85
2022/02/15 03:40:09;;;;;;;7.63;2.03;;;30.20;99.90;;;;;;5073072;28;20028;-85
2022/02/15 03:45:21;;;;;;;12.45;2.10;;;30.30;99.90;;;;;;5074656;28;20046;-84
2022/02/15 03:47:49;;;;;;;10.75;2.65;;;30.70;99.90;;;;;;5073182;28;20112;-86
2022/02/15 03:50:16;;;;;;;9.38;2.00;;;30.20;99.90;;;;;;5072919;28;20417;-84
2022/02/15 03:52:43;;;;;;;11.23;1.95;;;30.20;99.90;;;;;;5072627;28;20028;-82
2022/02/15 03:55:11;;;;;;;8.73;1.98;;;30.50;99.90;;;;;;5073656;28;20021;-80
2022/02/15 03:57:38;;;;;;;10.25;2.25;;;30.10;99.90;;;;;;5072724;28;20028;-84
2022/02/15 04:00:08;;;;;;;10.45;2.60;;;29.90;99.90;;;;;;5073784;28;20028;-84
2022/02/15 04:02:35;;;;;;;10.30;2.78;;;29.80;99.90;;;;;;5072165;28;20020;-83
2022/02/15 04:05:03;;;;;;;11.50;2.20;;;29.80;99.90;;;;;;5072529;28;20052;-82
2022/02/15 04:07:30;;;;;;;10.77;2.25;;;29.60;99.90;;;;;;5072447;28;20056;-81
2022/02/15 04:09:58;;;;;;;7.82;2.22;;;29.50;99.90;;;;;;5072663;28;20540;-80
2022/02/15 04:12:25;;;;;;;12.57;2.45;;;29.50;99.90;;;;;;5073591;28;20170;-80
2022/02/15 04:14:52;;;;;;;10.93;2.67;;;29.50;99.90;;;;;;5073580;28;20024;-82
2022/02/15 04:17:20;;;;;;;11.00;2.60;;;29.70;99.90;;;;;;5073687;28;20021;-81
2022/02/15 04:19:47;;;;;;;10.25;1.88;;;29.90;99.90;;;;;;5074035;28;20094;-81
2022/02/15 04:22:14;;;;;;;8.10;2.00;;;29.60;99.90;;;;;;5073374;28;20021;-81
2022/02/15 04:24:42;;;;;;;10.18;2.17;;;30.00;99.90;;;;;;5073023;28;20045;-82
2022/02/15 04:27:09;;;;;;;11.60;2.28;;;30.10;99.90;;;;;;5072515;28;20032;-82
2022/02/15 04:29:36;;;;;;;10.88;2.20;;;30.10;99.90;;;;;;5075044;28;20025;-83
2022/02/15 04:32:04;;;;;;;11.40;2.33;;;30.00;99.90;;;;;;5072592;28;20557;-83
2022/02/15 04:34:31;;;;;;;9.00;2.15;;;29.90;99.90;;;;;;5072156;28;20028;-84
2022/02/15 04:36:59;;;;;;;10.00;2.42;;;29.70;99.90;;;;;;5073973;28;20016;-86
2022/02/15 04:39:26;;;;;;;10.98;2.55;;;29.70;99.90;;;;;;5075556;28;20035;-84
2022/02/15 04:41:53;;;;;;;11.20;2.45;;;29.40;99.90;;;;;;5077431;28;20066;-83
2022/02/15 04:44:22;;;;;;;9.63;2.00;;;29.00;99.90;;;;;;5078213;28;20023;-82
2022/02/15 04:46:49;;;;;;;13.20;2.50;;;29.20;99.90;;;;;;5077215;28;20039;-83
2022/02/15 04:49:17;;;;;;;12.05;2.47;;;29.50;99.90;;;;;;5077666;28;20050;-85
2022/02/15 04:51:44;;;;;;;9.82;2.38;;;29.60;99.90;;;;;;5076362;28;20024;-83
2022/02/15 04:54:13;;;;;;;10.20;2.20;;;29.30;99.90;;;;;;5078428;28;20029;-81
2022/02/15 04:56:41;;;;;;;10.75;2.72;;;29.10;99.90;;;;;;5077841;28;20025;-83
2022/02/15 04:59:08;;;;;;;10.85;1.90;;;28.90;99.90;;;;;;5077238;28;20019;-84
2022/02/15 05:01:36;;;;;;;11.38;2.53;;;29.30;99.90;;;;;;5075587;28;20444;-83
2022/02/15 05:04:03;;;;;;;11.18;2.30;;;29.50;99.90;;;;;;5077391;28;20012;-82
2022/02/15 05:06:30;;;;;;;12.63;2.30;;;29.60;99.90;;;;;;5077012;28;20389;-84
2022/02/15 05:08:58;;;;;;;11.13;2.35;;;29.50;99.90;;;;;;5076098;28;20028;-85
2022/02/15 05:11:25;;;;;;;15.40;2.75;;;29.30;99.90;;;;;;5077545;28;20052;-84
2022/02/15 05:13:54;;;;;;;11.68;2.40;;;28.80;99.90;;;;;;5077327;28;20020;-82
2022/02/15 05:16:21;;;;;;;12.18;2.25;;;28.30;99.90;;;;;;5076968;28;20048;-83
2022/02/15 05:18:49;;;;;;;10.50;2.53;;;28.50;99.90;;;;;;5075442;28;20036;-82
2022/02/15 05:21:16;;;;;;;12.20;2.47;;;28.30;99.90;;;;;;5075656;28;20544;-83
2022/02/15 05:23:43;;;;;;;12.23;2.30;;;28.70;99.90;;;;;;5076913;28;20072;-81
2022/02/15 05:26:10;;;;;;;11.10;2.00;;;29.00;99.90;;;;;;5076973;28;20044;-82
2022/02/15 05:28:38;;;;;;;11.57;2.20;;;28.60;99.90;;;;;;5076532;28;20056;-81
2022/02/15 05:31:05;;;;;;;12.05;2.13;;;28.50;99.90;;;;;;5077286;28;20116;-81
2022/02/15 05:33:32;;;;;;;11.77;2.50;;;28.50;99.90;;;;;;5076620;28;20070;-81
2022/02/15 05:36:00;;;;;;;14.60;2.67;;;28.20;99.90;;;;;;5075455;28;20021;-82
2022/02/15 05:38:27;;;;;;;12.80;2.53;;;28.00;99.90;;;;;;5076567;28;20462;-82
2022/02/15 05:40:54;;;;;;;10.60;2.20;;;28.10;99.90;;;;;;5082043;28;20028;-77
2022/02/15 05:43:40;;;;;;;10.25;1.98;;;28.20;99.90;;;;;;5086714;28;20056;-79
2022/02/15 05:46:07;;;;;;;10.20;1.90;;;28.50;99.90;;;;;;5083784;28;20020;-81
2022/02/15 05:48:35;;;;;;;14.02;2.63;;;28.60;99.90;;;;;;5084738;28;20029;-79
2022/02/15 05:51:02;;;;;;;11.55;2.67;;;28.80;99.90;;;;;;5082000;28;20418;-81
2022/02/15 05:53:31;;;;;;;12.82;2.60;;;28.50;99.90;;;;;;5083023;28;20052;-79
2022/02/15 05:56:01;;;;;;;12.38;2.42;;;28.20;99.90;;;;;;5082937;28;20039;-79
2022/02/15 05:58:29;;;;;;;;;;;28.40;99.90;;;;;;5085006;28;20447;-79
2022/02/15 06:00:57;;;;;;;11.52;2.13;;;28.30;99.90;;;;;;5087971;28;19912;-79
2022/02/15 06:06:11;;;;;;;10.50;2.53;;;27.90;99.90;;;;;;5083547;28;20443;-79
2022/02/15 06:08:38;;;;;;;11.30;2.80;;;27.80;99.90;;;;;;5075052;28;20419;-78
2022/02/15 06:11:05;;;;;;;14.98;3.05;;;27.70;99.90;;;;;;5075806;28;20107;-79
2022/02/15 06:13:33;;;;;;;15.55;2.45;;;28.00;99.90;;;;;;5076527;28;20020;-78
2022/02/15 06:16:00;;;;;;;12.52;2.65;;;28.40;99.90;;;;;;5076120;28;20048;-77
2022/02/15 06:18:27;;;;;;;10.02;2.05;;;28.50;99.90;;;;;;5074336;28;20034;-78
2022/02/15 06:20:55;;;;;;;12.70;2.60;;;28.30;99.90;;;;;;5074356;28;20024;-77
2022/02/15 06:23:22;;;;;;;12.27;2.35;;;28.50;99.90;;;;;;5073772;28;20040;-78
2022/02/15 06:25:49;;;;;;;15.25;2.60;;;28.90;99.90;;;;;;5074255;28;20028;-78
2022/02/15 06:28:17;;;;;;;13.90;3.20;;;28.80;99.90;;;;;;5075384;28;20016;-77
2022/02/15 06:30:44;;;;;;;12.38;2.88;;;28.40;99.90;;;;;;5076378;28;20024;-77
2022/02/15 06:33:11;;;;;;;14.20;2.85;;;28.40;99.90;;;;;;5076193;28;20028;-78
2022/02/15 06:35:39;;;;;;;13.13;2.92;;;28.60;99.90;;;;;;5076529;28;20032;-77
2022/02/15 06:38:06;;;;;;;13.00;2.70;;;28.50;99.90;;;;;;5077420;28;20433;-77
2022/02/15 06:40:33;;;;;;;12.55;3.17;;;28.90;99.90;;;;;;5076138;28;20075;-77
2022/02/15 06:43:01;;;;;;;11.85;2.50;;;29.10;99.90;;;;;;5076059;28;20089;-77
2022/02/15 06:45:28;;;;;;;8.20;2.58;;;29.00;99.90;;;;;;5075651;28;20027;-79
2022/02/15 06:47:56;;;;;;;9.88;2.72;;;29.00;99.90;;;;;;5076614;28;20414;-79
2022/02/15 06:50:25;;;;;;;10.88;2.40;;;28.90;99.90;;;;;;5075189;28;20032;-79
2022/02/15 06:52:53;;;;;;;15.82;2.90;;;28.50;99.90;;;;;;5077462;28;20024;-79
2022/02/15 06:55:20;;;;;;;9.82;2.33;;;28.00;99.90;;;;;;5082595;28;20060;-77
2022/02/15 06:57:47;;;;;;;11.50;2.10;;;27.90;99.90;;;;;;5079270;28;20025;-80
2022/02/15 07:00:15;;;;;;;13.38;2.38;;;28.00;99.90;;;;;;5076676;28;20028;-79
2022/02/15 07:02:42;;;;;;;10.50;2.20;;;28.10;99.90;;;;;;5074754;28;20151;-80
2022/02/15 07:05:10;;;;;;;9.82;2.15;;;28.50;99.90;;;;;;5073809;28;20027;-80
2022/02/15 07:07:38;;;;;;;13.82;2.60;;;28.30;99.90;;;;;;5074915;28;20389;-80
2022/02/15 07:10:06;;;;;;;12.52;2.67;;;28.40;99.90;;;;;;5073388;28;20035;-79
2022/02/15 07:12:33;;;;;;;11.73;2.80;;;28.50;99.90;;;;;;5074432;28;20028;-78
2022/02/15 07:15:01;;;;;;;13.52;2.45;;;28.40;99.90;;;;;;5074166;28;20025;-79
2022/02/15 07:17:28;;;;;;;18.10;3.28;;;28.30;99.90;;;;;;5074717;28;20025;-78
2022/02/15 07:19:55;;;;;;;14.80;2.70;;;28.10;99.90;;;;;;5076445;28;20500;-80
2022/02/15 07:22:23;;;;;;;13.23;2.45;;;28.10;99.90;;;;;;5074170;28;20023;-79
2022/02/15 07:24:50;;;;;;;8.13;1.73;;;27.80;99.90;;;;;;5077828;28;20093;-79
2022/02/15 07:27:17;;;;;;;10.07;2.15;;;28.00;99.90;;;;;;5074316;28;20020;-78
2022/02/15 07:29:45;;;;;;;13.93;2.25;;;27.70;99.90;;;;;;5073031;28;20028;-77
2022/02/15 07:32:12;;;;;;;9.32;2.00;;;27.60;99.90;;;;;;5072947;28;20116;-78
2022/02/15 07:34:39;;;;;;;15.75;2.65;;;27.20;99.90;;;;;;5072995;28;20437;-77
2022/02/15 07:37:07;;;;;;;13.40;2.80;;;27.10;99.90;;;;;;5073003;28;20024;-78
2022/02/15 07:39:34;;;;;;;12.32;3.22;;;26.70;99.90;;;;;;5072910;28;20074;-78
2022/02/15 07:42:01;;;;;;;11.07;2.45;;;26.70;99.90;;;;;;5073929;28;20517;-77
2022/02/15 07:44:29;;;;;;;13.45;2.33;;;26.50;99.90;;;;;;5074378;28;20069;-79
2022/02/15 07:46:59;;;;;;;11.88;3.15;;;26.40;99.90;;;;;;5074054;28;20020;-79
2022/02/15 07:49:26;;;;;;;;;;;26.00;99.90;;;;;;5074611;28;20028;-77
2022/02/15 07:51:54;;;;;;;9.52;2.53;;;25.70;99.90;;;;;;5073582;28;19905;-78
2022/02/15 07:54:22;;;;;;;13.80;2.67;;;25.50;99.90;;;;;;5076072;28;20478;-79
2022/02/15 07:56:49;;;;;;;13.80;2.60;;;25.40;99.90;;;;;;5057770;28;20038;-79
2022/02/15 07:59:17;;;;;;;17.27;2.50;;;25.30;99.90;;;;;;5075322;28;20025;-79
2022/02/15 08:01:44;;;;;;;13.60;2.67;;;25.10;99.90;;;;;;5073740;28;20025;-78
2022/02/15 08:04:13;;;;;;;14.65;2.25;;;25.00;99.90;;;;;;5072556;28;20382;-77
2022/02/15 08:06:41;;;;;;;13.35;2.33;;;24.90;99.90;;;;;;5074181;28;20409;-77
2022/02/15 08:09:14;;;;;;;13.45;2.20;;;24.90;99.90;;;;;;5074210;28;20401;-78
2022/02/15 08:11:45;;;;;;;11.23;2.20;;;24.80;99.90;;;;;;5075220;28;20032;-78
2022/02/15 08:14:11;;;;;;;;;;;24.80;99.90;;;;;;5074552;28;20016;-78
2022/02/15 08:16:39;;;;;;;16.02;2.55;;;24.70;99.90;;;;;;5074282;28;19912;-78
2022/02/15 08:19:06;;;;;;;19.30;2.72;;;24.50;99.90;;;;;;5075423;28;20392;-77
2022/02/15 08:21:33;;;;;;;16.50;2.63;;;24.40;99.90;;;;;;5074590;28;20107;-77
2022/02/15 08:24:00;;;;;;;17.75;3.03;;;24.30;99.90;;;;;;5073654;28;20036;-78
2022/02/15 08:26:28;;;;;;;11.05;2.63;;;24.20;99.90;;;;;;5073279;28;20021;-78
2022/02/15 08:28:55;;;;;;;11.05;2.53;;;24.20;99.90;;;;;;5073920;28;20060;-77
2022/02/15 08:31:22;;;;;;;13.88;2.83;;;24.10;99.90;;;;;;5074361;28;20513;-77
2022/02/15 08:33:50;;;;;;;12.32;2.58;;;24.00;99.90;;;;;;5074094;28;20028;-77
2022/02/15 08:36:17;;;;;;;15.15;2.70;;;24.00;99.90;;;;;;5073150;28;20031;-78
2022/02/15 08:38:45;;;;;;;12.00;2.95;;;24.00;99.90;;;;;;5073694;28;20059;-78
2022/02/15 08:41:13;;;;;;;14.85;2.97;;;23.90;99.90;;;;;;5072220;28;20490;-77
2022/02/15 08:43:41;;;;;;;15.05;2.67;;;23.90;99.90;;;;;;5072624;28;20025;-77
2022/02/15 08:46:08;;;;;;;16.08;2.78;;;23.80;99.90;;;;;;5074047;28;20027;-78
2022/02/15 08:48:35;;;;;;;16.35;3.25;;;23.70;99.90;;;;;;5072433;28;20394;-78
2022/02/15 08:51:03;;;;;;;13.68;2.38;;;23.60;99.90;;;;;;5073975;28;20167;-79
2022/02/15 08:53:30;;;;;;;13.18;2.30;;;23.60;99.90;;;;;;5073122;28;20115;-78
2022/02/15 08:55:58;;;;;;;16.73;3.10;;;23.60;99.90;;;;;;5072377;28;20035;-77
2022/02/15 08:58:25;;;;;;;19.52;3.13;;;23.60;99.90;;;;;;5073814;28;20032;-77
2022/02/15 09:00:53;;;;;;;17.02;2.67;;;23.40;99.90;;;;;;5073892;28;20120;-79
2022/02/15 09:03:20;;;;;;;13.90;2.67;;;23.50;99.90;;;;;;5074563;28;20021;-78
2022/02/15 09:05:47;;;;;;;16.42;2.88;;;23.40;99.90;;;;;;5074707;28;20021;-79
2022/02/15 09:08:15;;;;;;;17.85;3.65;;;23.40;99.90;;;;;;5072687;28;20032;-77
2022/02/15 09:10:42;;;;;;;13.38;2.63;;;23.30;99.90;;;;;;5074055;28;20108;-79
2022/02/15 09:13:10;;;;;;;17.98;2.92;;;23.30;99.90;;;;;;5074931;28;20078;-78
2022/02/15 09:15:38;;;;;;;20.50;3.00;;;23.30;99.90;;;;;;5073603;28;20058;-78
2022/02/15 09:18:05;;;;;;;15.80;2.80;;;23.30;99.90;;;;;;5073171;28;20025;-78
2022/02/15 09:20:33;;;;;;;13.57;2.33;;;23.20;99.90;;;;;;5073495;28;20071;-78
2022/02/15 09:23:00;;;;;;;13.10;2.80;;;23.20;99.90;;;;;;5071947;28;20024;-78
2022/02/15 09:25:27;;;;;;;16.10;2.55;;;23.10;99.90;;;;;;5074873;28;20054;-77
2022/02/15 09:27:55;;;;;;;17.20;2.80;;;23.10;99.90;;;;;;5077236;28;20016;-78
2022/02/15 09:30:22;;;;;;;14.65;2.72;;;23.10;99.90;;;;;;5076267;28;20024;-80
2022/02/15 09:32:50;;;;;;;14.20;2.58;;;23.00;99.90;;;;;;5077007;28;20033;-77
2022/02/15 09:35:17;;;;;;;15.15;2.63;;;23.00;99.90;;;;;;5077409;28;20029;-77
2022/02/15 09:37:44;;;;;;;15.07;2.90;;;23.00;99.90;;;;;;5077398;28;20020;-78
2022/02/15 09:40:13;;;;;;;15.48;3.25;;;23.00;99.90;;;;;;5075764;28;20025;-78
2022/02/15 09:42:40;;;;;;;21.25;2.65;;;22.90;99.90;;;;;;5076705;28;20088;-79
2022/02/15 09:45:12;;;;;;;16.02;2.85;;;22.90;99.90;;;;;;5076136;28;20378;-82
2022/02/15 09:47:43;;;;;;;13.55;2.65;;;22.80;99.90;;;;;;5076854;28;20020;-80
2022/02/15 09:50:10;;;;;;;18.20;3.38;;;22.80;99.90;;;;;;5074484;28;20086;-79
2022/02/15 09:52:47;;;;;;;12.82;2.55;;;22.80;99.90;;;;;;5075759;28;20028;-80
2022/02/15 09:55:14;;;;;;;12.70;1.92;;;22.80;99.90;;;;;;5075839;28;20024;-79
2022/02/15 09:57:42;;;;;;;16.50;2.70;;;22.70;99.90;;;;;;5075648;28;20103;-79
2022/02/15 10:00:10;;;;;;;15.82;2.53;;;22.70;99.90;;;;;;5074409;28;20028;-79
2022/02/15 10:02:38;;;;;;;12.85;2.63;;;22.70;99.90;;;;;;5075810;28;20021;-77
2022/02/15 10:05:10;;;;;;;15.98;2.75;;;22.60;99.90;;;;;;5074068;28;20091;-78
2022/02/15 10:07:56;;;;;;;16.42;3.15;;;22.60;99.90;;;;;;5074565;28;20025;-78
2022/02/15 10:10:35;;;;;;;17.17;2.67;;;22.60;99.90;;;;;;5076022;28;20046;-79
2022/02/15 10:13:11;;;;;;;14.18;2.58;;;22.60;99.90;;;;;;5075495;28;20069;-79
2022/02/15 10:15:41;;;;;;;12.77;2.10;;;22.60;99.90;;;;;;5074230;28;20050;-79
2022/02/15 10:18:15;;;;;;;14.52;2.15;;;22.60;99.90;;;;;;5074260;28;20399;-78
2022/02/15 10:20:44;;;;;;;13.15;2.58;;;22.60;99.90;;;;;;5073925;28;20485;-79
2022/02/15 10:23:14;;;;;;;11.57;2.35;;;22.60;99.90;;;;;;5075191;28;20381;-78
2022/02/15 10:25:42;;;;;;;14.30;3.40;;;22.50;99.90;;;;;;5074052;28;20024;-78
2022/02/15 10:28:24;;;;;;;18.15;2.83;;;22.50;99.90;;;;;;5075441;28;20024;-78
2022/02/15 10:30:52;;;;;;;13.95;2.90;;;22.50;99.90;;;;;;5075342;28;20050;-78
2022/02/15 10:33:22;;;;;;;14.68;2.22;;;22.50;99.90;;;;;;5075204;28;20056;-79
2022/02/15 10:36:01;;;;;;;13.82;2.88;;;22.50;99.90;;;;;;5074965;28;20024;-78
2022/02/15 10:38:34;;;;;;;10.20;2.53;;;22.40;99.90;;;;;;5075183;28;20162;-79
2022/02/15 10:41:06;;;;;;;13.07;2.00;;;22.40;99.90;;;;;;5075006;28;20029;-78
2022/02/15 10:43:57;;;;;;;13.15;2.85;;;22.40;99.90;;;;;;5075077;28;20147;-79
2022/02/15 10:46:28;;;;;;;13.90;2.25;;;22.30;99.90;;;;;;5074911;28;20359;-77
2022/02/15 10:48:56;;;;;;;18.45;3.10;;;22.30;99.90;;;;;;5075250;28;20021;-78
2022/02/15 10:51:25;;;;;;;17.08;2.53;;;22.30;99.90;;;;;;5074861;28;20394;-78
2022/02/15 10:53:53;;;;;;;11.98;2.33;;;22.30;99.90;;;;;;5073465;28;20048;-79
2022/02/15 10:56:21;;;;;;;12.35;2.55;;;22.30;99.90;;;;;;5074750;28;20052;-79
2022/02/15 10:58:49;;;;;;;13.25;2.50;;;22.20;99.90;;;;;;5074579;28;20099;-79
2022/02/15 11:01:17;;;;;;;12.43;2.60;;;22.20;99.90;;;;;;5073010;28;20029;-79
2022/02/15 11:03:45;;;;;;;14.88;2.88;;;22.20;99.90;;;;;;5074539;28;20024;-79
2022/02/15 11:06:12;;;;;;;13.75;2.13;;;22.20;99.90;;;;;;5074520;28;20031;-79
2022/02/15 11:08:44;;;;;;;14.50;2.40;;;22.10;99.90;;;;;;5073062;28;20016;-79
2022/02/15 11:11:17;;;;;;;12.60;2.38;;;22.10;99.90;;;;;;5074272;28;20020;-78
2022/02/15 11:13:46;;;;;;;14.32;2.58;;;22.20;99.90;;;;;;5073143;28;20024;-79
2022/02/15 11:16:19;;;;;;;15.95;2.28;;;22.20;99.90;;;;;;5072999;28;20059;-78
2022/02/15 11:18:46;;;;;;;13.02;2.13;;;22.20;99.90;;;;;;5072796;28;20474;-78
2022/02/15 11:21:25;;;;;;;16.98;2.63;;;22.10;99.90;;;;;;5073050;28;20056;-78
2022/02/15 11:24:01;;;;;;;14.35;2.80;;;22.10;99.90;;;;;;5072735;28;20121;-77
2022/02/15 11:26:41;;;;;;;17.98;2.53;;;22.10;99.90;;;;;;5074042;28;20024;-78
2022/02/15 11:29:24;;;;;;;14.00;2.73;;;22.10;99.90;;;;;;5072610;28;20074;-78
2022/02/15 11:31:55;;;;;;;10.00;2.08;;;22.00;99.90;;;;;;5072633;28;20543;-78
2022/02/15 11:34:42;;;;;;;;;;;22.00;99.90;;;;;;5072972;28;20021;-77
2022/02/15 11:37:22;;;;;;;16.70;2.28;;;22.00;99.90;;;;;;5073968;28;20357;-78
2022/02/15 11:40:14;;;;;;;12.57;2.22;;;22.00;99.90;;;;;;5073700;28;20489;-79
2022/02/15 11:42:52;;;;;;;11.90;2.78;;;21.90;99.90;;;;;;5073739;28;20028;-78
2022/02/15 11:45:30;;;;;;;13.45;2.33;;;21.90;99.90;;;;;;5073862;28;20021;-79
2022/02/15 11:48:09;;;;;;;14.38;2.40;;;21.90;99.90;;;;;;5072858;28;20434;-78
2022/02/15 11:50:47;;;;;;;11.83;2.37;;;21.90;99.90;;;;;;5073686;28;20387;-79
2022/02/15 11:53:19;;;;;;;14.43;2.45;;;21.90;99.90;;;;;;5072422;28;20081;-78
2022/02/15 11:55:48;;;;;;;16.13;2.72;;;21.90;99.90;;;;;;5073600;28;20024;-78
2022/02/15 11:58:16;;;;;;;15.65;2.80;;;21.80;99.90;;;;;;5072156;28;20119;-77
2022/02/15 12:00:47;;;;;;;13.27;2.78;;;21.80;99.90;;;;;;5073222;28;20028;-78
2022/02/15 12:03:18;;;;;;;14.07;2.17;;;21.80;99.90;;;;;;5072191;28;20481;-78
2022/02/15 12:05:47;;;;;;;15.23;2.47;;;21.80;99.90;;;;;;5073333;28;20439;-78
2022/02/15 12:08:22;;;;;;;15.40;2.63;;;21.80;99.90;;;;;;5073218;28;20016;-77
2022/02/15 12:10:51;;;;;;;17.08;2.63;;;21.80;99.90;;;;;;5072110;28;20516;-78
2022/02/15 12:13:22;;;;;;;14.38;2.63;;;21.80;99.90;;;;;;5072209;28;20024;-78
2022/02/15 12:15:52;;;;;;;17.08;2.33;;;21.70;99.90;;;;;;5072123;28;20032;-79
2022/02/15 12:18:35;;;;;;;14.82;2.45;;;21.70;99.90;;;;;;5071920;28;20037;-78
2022/02/15 12:21:03;;;;;;;16.25;2.40;;;21.70;99.90;;;;;;5073096;28;20029;-78
2022/02/15 12:23:30;;;;;;;14.75;2.50;;;21.70;99.90;;;;;;5073370;28;20071;-78
2022/02/15 12:25:57;;;;;;;12.55;2.35;;;21.70;99.90;;;;;;5073370;28;20027;-78
2022/02/15 12:28:26;;;;;;;12.10;2.47;;;21.70;99.90;;;;;;5073280;28;20024;-78
2022/02/15 12:30:56;;;;;;;13.07;3.10;;;21.60;99.90;;;;;;5071693;28;20485;-78
2022/02/15 12:33:37;;;;;;;15.10;2.05;;;21.60;99.90;;;;;;5071729;28;20082;-77
2022/02/15 12:36:07;;;;;;;14.35;2.40;;;21.60;99.90;;;;;;5072069;28;20024;-77
2022/02/15 12:38:39;;;;;;;10.43;2.00;;;21.50;99.90;;;;;;5072832;28;20206;-78
2022/02/15 12:41:16;;;;;;;13.65;2.47;;;21.50;99.90;;;;;;5072618;28;20025;-77
2022/02/15 12:43:45;;;;;;;13.40;2.42;;;21.60;99.90;;;;;;5071547;28;20016;-77
2022/02/15 12:46:14;;;;;;;11.05;2.35;;;21.60;99.90;;;;;;5071609;28;20421;-78
2022/02/15 12:48:43;;;;;;;18.40;2.70;;;21.50;99.90;;;;;;5072987;28;20024;-77
2022/02/15 12:51:11;;;;;;;16.95;2.38;;;21.50;99.90;;;;;;5073078;28;20028;-79
2022/02/15 12:53:38;;;;;;;10.10;2.30;;;21.50;99.90;;;;;;5073010;28;20016;-78
2022/02/15 12:56:07;;;;;;;15.50;2.67;;;21.40;99.90;;;;;;5072902;28;20448;-78